Time;durP1;ratioP1;P1;durP2;ratioP2;P2;SDS_P1;SDS_P2;PMS_P1;PMS_P2;Temp;Humidity;BMP_temperature;BMP_pressure;BME280_temperature;BME280_humidity;BME280_pressure;Samples;Min_cycle;Max_cycle;Signal;HPM_P1;HPM_P2
2022/04/02 07:42:08;;;;;;;;;;;;;;;-0.62;100.00;94645.31;1045599;28;20572;-78
2022/04/02 07:42:43;;;;;;;;;;;;;;;-0.43;100.00;94643.47;1039205;28;19925;-77
2022/04/02 07:43:24;;;;;;;;;;;;;;;-0.33;100.00;94648.88;1039389;28;19909;-79
2022/04/02 07:43:55;;;;;;;;;;;;;;;-0.58;100.00;94645.66;1035136;28;20391;-78
2022/04/02 07:44:39;;;;;;;;;;;;;;;-0.64;100.00;94651.69;1034662;28;19921;-78
2022/04/02 07:45:16;;;;;;;;;;;;;;;-0.82;100.00;94655.13;1030993;28;19910;-78
2022/04/02 07:45:47;;;;;;;;;;;;;;;-0.72;100.00;94650.22;1034946;28;19909;-78
2022/04/02 07:46:18;;;;;;;;;;;;;;;-0.82;100.00;94652.53;1035180;28;19981;-80
2022/04/02 07:46:51;;;;;;;;;;;;;;;-0.74;100.00;94647.88;1032464;28;20656;-79
2022/04/02 07:47:22;;;;;;;;;;;;;;;-0.88;100.00;94646.47;1035074;28;20596;-78
2022/04/02 07:47:56;;;;;;;;;;;;;;;-0.72;100.00;94650.22;1035801;28;19967;-78
2022/04/02 07:48:26;;;;;;;;;;;;;;;-0.63;100.00;94650.72;1039231;28;19919;-78
2022/04/02 07:48:56;;;;;;;;;;;;;;;-0.55;100.00;94656.31;1034797;28;19917;-78
2022/04/02 07:49:28;;;;;;;;;;;;;;;-0.73;100.00;94654.59;1038141;28;19924;-78
2022/04/02 07:50:03;;;;;;;;;;;;;;;-0.71;100.00;94654.38;1030794;28;19921;-77
2022/04/02 07:50:33;;;;;;;;;;;;;;;-0.51;100.00;94656.66;1031547;28;19910;-77
2022/04/02 07:51:05;;;;;;;;;;;;;;;-0.39;100.00;94659.28;1031327;28;20029;-77
2022/04/02 07:51:36;;;;;;;;;;;;;;;-0.37;100.00;94658.06;1036092;28;20758;-77
2022/04/02 07:52:08;;;;;;;;;;;;;;;-0.37;100.00;94659.84;1034599;28;19910;-78
2022/04/02 07:52:44;;;;;;;;;;;;;;;-0.36;100.00;94654.47;1031137;28;20453;-78
2022/04/02 07:53:18;;;;;;;;;;;;;;;-0.56;100.00;94661.72;1034993;28;20400;-77
2022/04/02 07:53:50;;;;;;;;;;;;;;;-0.68;100.00;94666.03;1034106;28;20466;-77
2022/04/02 07:54:24;;;;;;;;;;;;;;;-0.74;100.00;94662.53;1039620;28;19905;-77
2022/04/02 07:54:55;;;;;;;;;;;;;;;-0.49;100.00;94664.97;1043348;28;20485;-79
2022/04/02 07:55:26;;;;;;;;;;;;;;;-0.51;100.00;94661.81;1039361;28;19905;-79
2022/04/02 07:55:57;;;;;;;;;;;;;;;-0.36;100.00;94669.94;1039290;28;19921;-77
2022/04/02 07:56:48;;;;;;;;;;;;;;;-0.49;100.00;94667.56;1039058;28;20371;-78
2022/04/02 07:57:18;;;;;;;;;;;;;;;-0.32;100.00;94668.47;1037463;28;19920;-79
2022/04/02 07:57:49;;;;;;;;;;;;;;;-0.41;100.00;94672.38;1035075;28;19941;-77
2022/04/02 07:58:20;;;;;;;;;;;;;;;-0.41;100.00;94667.22;1038009;28;19912;-76
2022/04/02 07:58:51;;;;;;;;;;;;;;;-0.33;100.00;94674.66;1031000;28;20358;-76
2022/04/02 07:59:27;;;;;;;;;;;;;;;-0.61;100.00;94671.88;1035544;28;20402;-77
2022/04/02 07:59:59;;;;;;;;;;;;;;;-0.38;100.00;94671.94;1039287;28;19917;-77
2022/04/02 08:00:30;;;;;;;;;;;;;;;-0.73;100.00;94672.63;1037570;28;19914;-76
2022/04/02 08:01:03;;;;;;;;;;;;;;;-0.67;100.00;94672.75;1039028;28;19918;-76
2022/04/02 08:01:36;;;;;;;;;;;;;;;-0.52;100.00;94678.28;1031219;28;19960;-75
2022/04/02 08:02:59;;;;;;;;;;;;;;;-0.57;100.00;94667.84;1034466;28;20418;-77
2022/04/02 08:03:29;;;;;;;;;;;;;;;-0.59;100.00;94675.03;1031163;28;19914;-77
2022/04/02 08:04:01;;;;;;;;;;;;;;;-0.61;100.00;94672.66;1030181;28;19909;-77
2022/04/02 08:04:31;;;;;;;;;;;;;;;-0.66;100.00;94676.91;1027686;28;19964;-77
2022/04/02 08:05:06;;;;;;;;;;;;;;;-0.68;100.00;94677.09;1030687;28;20072;-78
2022/04/02 08:05:36;;;;;;;;;;;;;;;-0.42;100.00;94675.97;1027855;28;20210;-76
2022/04/02 08:06:06;;;;;;;;;;;;;;;-0.33;100.00;94684.19;1030237;28;19909;-77
2022/04/02 08:06:37;;;;;;;;;;;;;;;-0.35;100.00;94681.03;1032538;28;19906;-77
2022/04/02 08:07:07;;;;;;;;;;;;;;;-0.76;100.00;94680.78;1039003;28;19913;-77
2022/04/02 08:07:38;;;;;;;;;;;;;;;-0.82;100.00;94676.50;1039252;28;20358;-77
2022/04/02 08:08:08;;;;;;;;;;;;;;;-0.75;100.00;94681.56;1039399;28;20069;-77
2022/04/02 08:08:39;;;;;;;;;;;;;;;-0.65;100.00;94683.63;1037458;28;20497;-77
2022/04/02 08:09:09;;;;;;;;;;;;;;;-0.57;100.00;94686.69;1035217;28;19906;-78
2022/04/02 08:09:40;;;;;;;;;;;;;;;-0.57;100.00;94684.13;1035104;28;19917;-76
2022/04/02 08:10:11;;;;;;;;;;;;;;;-0.69;100.00;94682.50;1038652;28;20542;-78
2022/04/02 08:10:45;;;;;;;;;;;;;;;-0.59;100.00;94677.59;1031193;28;20737;-76
2022/04/02 08:11:16;;;;;;;;;;;;;;;-0.72;100.00;94648.44;1035050;28;19910;-78
2022/04/02 08:11:48;;;;;;;;;;;;;;;-0.61;100.00;94689.91;1039083;28;19991;-78
2022/04/02 08:12:18;;;;;;;;;;;;;;;-0.68;100.00;94692.56;1038979;28;20366;-78
2022/04/02 08:12:49;;;;;;;;;;;;;;;-0.66;100.00;94697.50;1035052;28;19917;-78
2022/04/02 08:13:19;;;;;;;;;;;;;;;-0.99;100.00;94696.13;1035256;28;19925;-78
2022/04/02 08:13:49;;;;;;;;;;;;;;;-1.02;100.00;94691.41;1035436;28;19909;-77
2022/04/02 08:14:21;;;;;;;;;;;;;;;-0.78;100.00;94687.94;1027102;28;19948;-76
2022/04/02 08:14:53;;;;;;;;;;;;;;;-0.53;100.00;94692.19;1031238;28;19961;-76
2022/04/02 08:15:24;;;;;;;;;;;;;;;-0.43;100.00;94689.88;1030721;28;20019;-78
2022/04/02 08:15:54;;;;;;;;;;;;;;;-0.46;100.00;94690.31;1034796;28;19909;-78
2022/04/02 08:16:25;;;;;;;;;;;;;;;-0.54;100.00;94693.16;1030981;28;19906;-78
2022/04/02 08:16:58;;;;;;;;;;;;;;;-0.55;100.00;94686.44;1030683;28;19910;-78
2022/04/02 08:17:29;;;;;;;;;;;;;;;-0.64;100.00;94692.91;1031270;28;20011;-76
2022/04/02 08:18:01;;;;;;;;;;;;;;;-0.78;100.00;94693.06;1035495;28;19951;-76
2022/04/02 08:18:31;;;;;;;;;;;;;;;-0.51;100.00;94700.47;1039280;28;19909;-77
2022/04/02 08:19:02;;;;;;;;;;;;;;;-0.42;100.00;94691.44;1034764;28;20540;-76
2022/04/02 08:19:32;;;;;;;;;;;;;;;-0.38;100.00;94692.56;1028253;28;20451;-77
2022/04/02 08:20:02;;;;;;;;;;;;;;;-0.66;100.00;94700.09;1031276;28;19913;-77
2022/04/02 08:20:33;;;;;;;;;;;;;;;-0.52;100.00;94693.75;1035163;28;20444;-77
2022/04/02 08:21:03;;;;;;;;;;;;;;;-0.27;100.00;94694.41;1040039;28;19920;-77
2022/04/02 08:21:34;;;;;;;;;;;;;;;-0.35;100.00;94694.69;1036351;28;19913;-77
2022/04/02 08:22:04;;;;;;;;;;;;;;;-0.19;100.00;94695.09;1040642;28;20430;-77
2022/04/02 08:22:35;;;;;;;;;;;;;;;-0.53;100.00;94692.97;1044203;28;20436;-77
2022/04/02 08:23:05;;;;;;;;;;;;;;;-0.88;100.00;94669.63;1035933;28;19912;-78
2022/04/02 08:23:38;;;;;;;;;;;;;;;-0.69;100.00;94703.09;1039584;28;19913;-78
2022/04/02 08:24:09;;;;;;;;;;;;;;;-0.40;100.00;94699.75;1044129;28;20387;-76
2022/04/02 08:24:40;;;;;;;;;;;;;;;-0.42;100.00;94670.81;1032236;28;19914;-78
2022/04/02 08:25:10;;;;;;;;;;;;;;;0.02;100.00;94697.13;1031954;28;19910;-78
2022/04/02 08:25:43;;;;;;;;;;;;;;;-0.04;100.00;94703.16;1033505;28;19917;-78
2022/04/02 08:26:29;;;;;;;;;;;;;;;0.10;100.00;94709.72;1029971;28;19910;-78
2022/04/02 08:27:00;;;;;;;;;;;;;;;0.12;100.00;94702.53;1029370;28;20438;-78
2022/04/02 08:27:30;;;;;;;;;;;;;;;0.28;100.00;94700.31;1033673;28;19921;-78
2022/04/02 08:28:05;;;;;;;;;;;;;;;0.42;100.00;94710.16;1037914;28;19909;-77
2022/04/02 08:28:47;;;;;;;;;;;;;;;0.40;100.00;94704.47;1036864;28;19916;-78
2022/04/02 08:29:25;;;;;;;;;;;;;;;0.50;100.00;94709.03;1037913;28;19909;-79
2022/04/02 08:30:11;;;;;;;;;;;;;;;0.49;100.00;94707.47;1038031;28;19993;-78
2022/04/02 08:30:48;;;;;;;;;;;;;;;0.59;100.00;94707.69;1042753;28;19917;-79
2022/04/02 08:31:26;;;;;;;;;;;;;;;0.60;100.00;94709.25;1044453;28;19913;-77
2022/04/02 08:32:16;;;;;;;;;;;;;;;0.30;100.00;94704.22;1038450;28;19940;-79
2022/04/02 08:32:52;;;;;;;;;;;;;;;-0.36;100.00;94708.59;1027493;28;19917;-78
2022/04/02 08:33:36;;;;;;;;;;;;;;;-0.17;100.00;94713.69;1031593;28;19932;-77
2022/04/02 08:34:12;;;;;;;;;;;;;;;-0.37;100.00;94711.38;1031689;28;19916;-76
2022/04/02 08:35:04;;;;;;;;;;;;;;;-0.28;100.00;94713.44;1038603;28;20000;-77
2022/04/02 08:35:54;;;;;;;;;;;;;;;-0.25;100.00;94715.56;1036841;28;20443;-77
2022/04/02 08:36:27;;;;;;;;;;;;;;;-0.13;100.00;94717.41;1043920;28;19916;-77
2022/04/02 08:37:02;;;;;;;;;;;;;;;-0.32;100.00;94717.44;1039884;28;20354;-79
2022/04/02 08:37:38;;;;;;;;;;;;;;;-0.18;100.00;94720.63;1041907;28;19909;-78
2022/04/02 08:38:27;;;;;;;;;;;;;;;-0.29;100.00;94711.06;1039902;28;19910;-76
2022/04/02 08:39:04;;;;;;;;;;;;;;;-0.14;100.00;94718.41;1038470;28;19952;-79
2022/04/02 08:39:46;;;;;;;;;;;;;;;0.14;100.00;94721.16;1044894;28;20346;-78
2022/04/02 08:40:19;;;;;;;;;;;;;;;0.11;100.00;94689.88;1034868;28;19919;-77
2022/04/02 08:41:10;;;;;;;;;;;;;;;0.47;100.00;94728.34;1037799;28;19905;-78
2022/04/02 08:41:43;;;;;;;;;;;;;;;0.59;100.00;94723.19;1031764;28;20000;-76
2022/04/02 08:42:19;;;;;;;;;;;;;;;0.73;100.00;94728.91;1030682;28;19906;-78
2022/04/02 08:42:58;;;;;;;;;;;;;;;0.40;100.00;94724.31;1034523;28;20722;-78
2022/04/02 08:43:38;;;;;;;;;;;;;;;0.71;100.00;94725.78;1035659;28;19968;-77
2022/04/02 08:44:27;;;;;;;;;;;;;;;0.76;100.00;94723.28;1039500;28;19956;-77
2022/04/02 08:45:08;;;;;;;;;;;;;;;0.60;100.00;94724.75;1043594;28;19924;-79
2022/04/02 08:45:54;;;;;;;;;;;;;;;0.19;100.00;94723.84;1039682;28;20405;-77
2022/04/02 08:46:27;;;;;;;;;;;;;;;0.36;100.00;94726.53;1032532;28;20328;-76
2022/04/02 08:47:01;;;;;;;;;;;;;;;0.43;100.00;94731.59;1032416;28;19914;-77
2022/04/02 08:48:07;;;;;;;;;;;;;;;0.58;100.00;94726.78;1041300;28;20055;-76
2022/04/02 08:48:37;;;;;;;;;;;;;;;0.32;100.00;94732.38;1032844;28;19906;-76
2022/04/02 08:49:15;;;;;;;;;;;;;;;0.21;100.00;94732.16;1027248;28;19945;-76
2022/04/02 08:50:05;;;;;;;;;;;;;;;0.21;100.00;94726.22;1024780;28;20392;-76
2022/04/02 08:50:36;;;;;;;;;;;;;;;-0.06;100.00;94730.97;1021450;28;19950;-75
2022/04/02 08:51:13;;;;;;;;;;;;;;;-0.17;100.00;94729.13;1020574;28;19914;-76
2022/04/02 08:51:47;;;;;;;;;;;;;;;-0.17;100.00;94735.06;1043173;28;20390;-76
2022/04/02 08:52:26;;;;;;;;;;;;;;;-0.17;100.00;94736.88;1043013;28;19912;-77
2022/04/02 08:52:57;;;;;;;;;;;;;;;-0.13;100.00;94738.03;1041605;28;19917;-77
2022/04/02 08:53:42;;;;;;;;;;;;;;;-0.15;100.00;94745.19;1039934;28;19915;-76
2022/04/02 08:54:22;;;;;;;;;;;;;;;-0.29;100.00;94742.78;1035812;28;20675;-76
2022/04/02 08:55:10;;;;;;;;;;;;;;;-0.50;100.00;94745.84;1042662;28;20629;-75
2022/04/02 08:55:50;;;;;;;;;;;;;;;-0.32;100.00;94748.38;1048037;28;19908;-76
2022/04/02 08:56:25;;;;;;;;;;;;;;;-0.13;100.00;94745.75;1035604;28;19909;-76
2022/04/02 08:56:56;;;;;;;;;;;;;;;-0.01;100.00;94746.56;1035580;28;19905;-75
2022/04/02 08:57:31;;;;;;;;;;;;;;;0.05;100.00;94747.47;1027926;28;19949;-76
2022/04/02 08:58:08;;;;;;;;;;;;;;;0.18;100.00;94748.06;1028137;28;20455;-76
2022/04/02 08:58:41;;;;;;;;;;;;;;;-0.14;100.00;94744.16;1035015;28;19909;-76
2022/04/02 08:59:13;;;;;;;;;;;;;;;-0.12;100.00;94748.09;1037812;28;19921;-75
2022/04/02 08:59:43;;;;;;;;;;;;;;;0.09;100.00;94751.19;1039677;28;19944;-75
2022/04/02 09:00:14;;;;;;;;;;;;;;;-0.03;100.00;94754.53;1036390;28;19909;-76
2022/04/02 09:00:45;;;;;;;;;;;;;;;-0.19;100.00;94757.72;1043179;28;20011;-78
2022/04/02 09:01:39;;;;;;;;;;;;;;;-0.10;100.00;94753.84;1043680;28;20444;-77
2022/04/02 09:02:18;;;;;;;;;;;;;;;0.10;100.00;94755.31;1030020;28;19906;-77
2022/04/02 09:03:08;;;;;;;;;;;;;;;0.20;100.00;94758.16;1043343;28;20017;-77
2022/04/02 09:03:53;;;;;;;;;;;;;;;0.42;100.00;94756.63;1043676;28;19940;-77
2022/04/02 09:04:26;;;;;;;;;;;;;;;0.29;100.00;94761.19;1046296;28;19908;-77
2022/04/02 09:05:03;;;;;;;;;;;;;;;0.01;100.00;94757.44;1043387;28;19960;-77
2022/04/02 09:05:52;;;;;;;;;;;;;;;-0.16;100.00;94761.66;1044459;28;19913;-77
2022/04/02 09:06:28;;;;;;;;;;;;;;;-0.04;100.00;94754.72;1039524;28;19909;-77
2022/04/02 09:07:17;;;;;;;;;;;;;;;0.11;100.00;94759.50;1039311;28;19905;-77
2022/04/02 09:07:59;;;;;;;;;;;;;;;-0.06;100.00;94770.44;1039438;28;19911;-78
2022/04/02 09:08:30;;;;;;;;;;;;;;;-0.49;100.00;94757.72;1043149;28;19908;-75
2022/04/02 09:09:07;;;;;;;;;;;;;;;-0.59;100.00;94767.75;1043711;28;19909;-75
2022/04/02 09:09:43;;;;;;;;;;;;;;;-0.24;100.00;94770.47;1043302;28;20364;-77
2022/04/02 09:10:20;;;;;;;;;;;;;;;-0.06;100.00;94767.09;1043722;28;19999;-75
2022/04/02 09:11:16;;;;;;;;;;;;;;;0.13;100.00;94771.13;1039067;28;19916;-78
2022/04/02 09:12:08;;;;;;;;;;;;;;;-0.06;100.00;94777.41;1036340;28;20028;-75
2022/04/02 09:12:53;;;;;;;;;;;;;;;0.05;100.00;94768.91;1039504;28;19920;-77
2022/04/02 09:13:42;;;;;;;;;;;;;;;0.27;100.00;94776.09;1038870;28;19952;-77
2022/04/02 09:14:18;;;;;;;;;;;;;;;0.20;100.00;94773.63;1043539;28;19917;-78
2022/04/02 09:15:07;;;;;;;;;;;;;;;0.18;100.00;94773.06;1043473;28;20039;-77
2022/04/02 09:15:56;;;;;;;;;;;;;;;0.05;100.00;94779.22;1043323;28;20724;-78
2022/04/02 09:16:27;;;;;;;;;;;;;;;-0.01;100.00;94777.50;1043523;28;19913;-76
2022/04/02 09:17:13;;;;;;;;;;;;;;;-0.09;100.00;94772.66;1042485;28;20018;-77
2022/04/02 09:17:50;;;;;;;;;;;;;;;-0.14;100.00;94773.31;1043412;28;20000;-77
2022/04/02 09:18:39;;;;;;;;;;;;;;;0.02;100.00;94774.50;1043720;28;19916;-77
2022/04/02 09:19:28;;;;;;;;;;;;;;;0.25;100.00;94778.13;1039882;28;19910;-76
2022/04/02 09:20:04;;;;;;;;;;;;;;;0.22;100.00;94769.81;1043695;28;19916;-77
2022/04/02 09:20:54;;;;;;;;;;;;;;;0.07;100.00;94774.63;1039951;28;19905;-77
2022/04/02 09:21:29;;;;;;;;;;;;;;;0.15;100.00;94766.56;1039799;28;19913;-77
2022/04/02 09:22:07;;;;;;;;;;;;;;;0.37;100.00;94776.34;1038659;28;19938;-76
2022/04/02 09:22:44;;;;;;;;;;;;;;;0.45;100.00;94778.63;1037759;28;19914;-77
2022/04/02 09:23:34;;;;;;;;;;;;;;;0.64;100.00;94782.69;1041845;28;19915;-76
2022/04/02 09:24:08;;;;;;;;;;;;;;;0.67;100.00;94786.59;1028673;28;20005;-77
2022/04/02 09:24:57;;;;;;;;;;;;;;;0.64;100.00;94782.69;1029310;28;20320;-77
2022/04/02 09:25:34;;;;;;;;;;;;;;;0.51;100.00;94784.69;1043815;28;19909;-77
2022/04/02 09:26:28;;;;;;;;;;;;;;;0.35;100.00;94781.75;1035734;28;19917;-78
2022/04/02 09:27:17;;;;;;;;;;;;;;;0.58;100.00;94783.56;1035119;28;19948;-77
2022/04/02 09:27:48;;;;;;;;;;;;;;;0.32;100.00;94783.97;1040172;28;19913;-76
2022/04/02 09:28:24;;;;;;;;;;;;;;;0.53;100.00;94780.84;1038178;28;19913;-76
2022/04/02 09:29:06;;;;;;;;;;;;;;;0.34;100.00;94789.72;1038820;28;19928;-76
2022/04/02 09:29:55;;;;;;;;;;;;;;;0.23;100.00;94786.88;1039556;28;19959;-76
2022/04/02 09:30:28;;;;;;;;;;;;;;;-0.02;100.00;94799.16;1038735;28;19913;-78
2022/04/02 09:31:10;;;;;;;;;;;;;;;0.03;100.00;94786.38;1038584;28;19909;-76
2022/04/02 09:32:06;;;;;;;;;;;;;;;0.06;100.00;94793.66;1045787;28;19952;-75
2022/04/02 09:32:56;;;;;;;;;;;;;;;-0.13;100.00;94794.75;1038968;28;19915;-75
2022/04/02 09:33:29;;;;;;;;;;;;;;;-0.32;100.00;94794.78;1041507;28;19925;-77
2022/04/02 09:34:02;;;;;;;;;;;;;;;-0.09;100.00;94794.09;1041805;28;19909;-75
2022/04/02 09:34:57;;;;;;;;;;;;;;;-0.08;100.00;94795.66;1045004;28;20023;-76
2022/04/02 09:35:30;;;;;;;;;;;;;;;-0.02;100.00;94794.00;1037587;28;20407;-76
2022/04/02 09:36:03;;;;;;;;;;;;;;;0.00;100.00;94797.16;1034903;28;19910;-76
2022/04/02 09:36:53;;;;;;;;;;;;;;;0.08;100.00;94794.25;1031359;28;19906;-79
2022/04/02 09:37:32;;;;;;;;;;;;;;;-0.41;100.00;94795.28;1037903;28;19905;-77
2022/04/02 09:38:12;;;;;;;;;;;;;;;-0.37;100.00;94792.06;1043750;28;19901;-77
2022/04/02 09:38:48;;;;;;;;;;;;;;;-0.16;100.00;94797.75;1047905;28;19916;-77
2022/04/02 09:39:37;;;;;;;;;;;;;;;0.20;100.00;94794.25;1048069;28;19909;-77
2022/04/02 09:40:28;;;;;;;;;;;;;;;0.07;100.00;94791.88;1043749;28;20624;-76
2022/04/02 09:41:03;;;;;;;;;;;;;;;0.21;100.00;94801.78;1042073;28;20332;-75
2022/04/02 09:41:39;;;;;;;;;;;;;;;0.47;100.00;94798.03;1043170;28;19915;-75
2022/04/02 09:42:21;;;;;;;;;;;;;;;0.68;100.00;94799.28;1039247;28;19916;-76
2022/04/02 09:42:52;;;;;;;;;;;;;;;0.60;100.00;94797.03;1037320;28;19919;-77
2022/04/02 09:43:26;;;;;;;;;;;;;;;0.87;100.00;94797.41;1025122;28;19922;-76
2022/04/02 09:43:59;;;;;;;;;;;;;;;0.89;100.00;94797.94;1026210;28;19915;-75
2022/04/02 09:44:52;;;;;;;;;;;;;;;0.74;100.00;94801.97;1031173;28;19957;-75
2022/04/02 09:45:23;;;;;;;;;;;;;;;0.50;100.00;94793.41;1034957;28;19909;-75
2022/04/02 09:46:06;;;;;;;;;;;;;;;0.78;100.00;94797.94;1030964;28;19910;-77
2022/04/02 09:46:48;;;;;;;;;;;;;;;0.56;100.00;94795.91;1031105;28;19906;-76
2022/04/02 09:47:21;;;;;;;;;;;;;;;0.78;100.00;94803.91;1034147;28;19910;-76
2022/04/02 09:47:58;;;;;;;;;;;;;;;0.40;100.00;94799.13;1036169;28;19909;-77
2022/04/02 09:48:30;;;;;;;;;;;;;;;0.32;100.00;94789.91;1041737;28;19916;-77
2022/04/02 09:49:22;;;;;;;;;;;;;;;0.58;100.00;94795.69;1040501;28;19999;-79
2022/04/02 09:50:09;;;;;;;;;;;;;;;0.89;100.00;94794.56;1036416;28;20249;-77
2022/04/02 09:50:39;;;;;;;;;;;;;;;0.90;100.00;94793.56;1034417;28;19909;-77
2022/04/02 09:51:09;;;;;;;;;;;;;;;0.86;100.00;94800.19;1035038;28;19909;-77
2022/04/02 09:51:40;;;;;;;;;;;;;;;1.04;100.00;94804.44;1037271;28;19905;-76
2022/04/02 09:52:11;;;;;;;;;;;;;;;0.85;100.00;94799.41;1039582;28;19913;-77
2022/04/02 09:52:46;;;;;;;;;;;;;;;0.88;100.00;94798.19;1039479;28;19909;-77
2022/04/02 09:53:18;;;;;;;;;;;;;;;0.97;100.00;94801.97;1035331;28;19912;-78
2022/04/02 09:53:58;;;;;;;;;;;;;;;1.04;100.00;94802.66;1031099;28;20396;-77
2022/04/02 09:54:49;;;;;;;;;;;;;;;0.94;100.00;94802.44;1034887;28;19913;-77
2022/04/02 09:55:26;;;;;;;;;;;;;;;0.73;100.00;94801.19;1038971;28;19937;-77
2022/04/02 09:56:09;;;;;;;;;;;;;;;0.77;100.00;94798.94;1032242;28;20629;-77
2022/04/02 09:56:39;;;;;;;;;;;;;;;0.46;100.00;94796.44;1035446;28;20950;-76
2022/04/02 09:57:22;;;;;;;;;;;;;;;0.43;100.00;94801.25;1035890;28;19959;-78
2022/04/02 09:58:08;;;;;;;;;;;;;;;0.53;100.00;94800.72;1042671;28;20008;-78
2022/04/02 09:58:57;;;;;;;;;;;;;;;0.59;100.00;94810.94;1037779;28;19909;-79
2022/04/02 09:59:58;;;;;;;;;;;;;;;0.66;100.00;94803.09;1034387;28;19914;-78
2022/04/02 10:00:30;;;;;;;;;;;;;;;0.34;100.00;94802.63;1026078;28;19922;-76
2022/04/02 10:01:08;;;;;;;;;;;;;;;0.35;100.00;94804.97;1039132;28;20493;-77
2022/04/02 10:01:42;;;;;;;;;;;;;;;0.34;100.00;94812.94;1043156;28;19935;-77
2022/04/02 10:02:35;;;;;;;;;;;;;;;0.18;100.00;94807.38;1040741;28;20003;-78
2022/04/02 10:03:06;;;;;;;;;;;;;;;0.33;100.00;94809.53;1031298;28;19906;-77
2022/04/02 10:03:40;;;;;;;;;;;;;;;0.33;100.00;94813.91;1042163;28;19965;-78
2022/04/02 10:04:30;;;;;;;;;;;;;;;0.31;100.00;94813.38;1043446;28;19936;-78
2022/04/02 10:05:07;;;;;;;;;;;;;;;0.25;100.00;94820.19;1036884;28;20284;-76
2022/04/02 10:05:45;;;;;;;;;;;;;;;0.19;100.00;94815.91;1035134;28;20298;-77
2022/04/02 10:06:41;;;;;;;;;;;;;;;0.13;100.00;94817.56;1035676;28;19906;-76
2022/04/02 10:07:32;;;;;;;;;;;;;;;-0.04;100.00;94821.78;1028236;28;19914;-77
2022/04/02 10:08:21;;;;;;;;;;;;;;;-0.04;100.00;94822.56;1039478;28;20599;-78
2022/04/02 10:09:03;;;;;;;;;;;;;;;0.12;100.00;94823.75;1039077;28;19959;-76
2022/04/02 10:09:34;;;;;;;;;;;;;;;0.13;100.00;94822.72;1035247;28;19912;-76
2022/04/02 10:10:05;;;;;;;;;;;;;;;0.14;100.00;94820.97;1039155;28;19932;-78
2022/04/02 10:10:35;;;;;;;;;;;;;;;0.12;100.00;94826.31;1033064;28;19945;-77
2022/04/02 10:11:06;;;;;;;;;;;;;;;0.28;100.00;94822.34;1035489;28;19916;-77
2022/04/02 10:11:41;;;;;;;;;;;;;;;0.30;100.00;94822.88;1034474;28;19925;-78
2022/04/02 10:12:11;;;;;;;;;;;;;;;0.11;100.00;94824.75;1035390;28;20478;-77
2022/04/02 10:12:44;;;;;;;;;;;;;;;0.25;100.00;94824.56;1037636;28;19917;-77
2022/04/02 10:13:15;;;;;;;;;;;;;;;0.21;100.00;94822.44;1040284;28;19979;-77
2022/04/02 10:13:45;;;;;;;;;;;;;;;0.31;100.00;94826.28;1041114;28;19909;-77
2022/04/02 10:14:22;;;;;;;;;;;;;;;0.35;100.00;94824.81;1043384;28;19913;-77
2022/04/02 10:14:55;;;;;;;;;;;;;;;0.08;100.00;94827.78;1040417;28;20350;-78
2022/04/02 10:15:25;;;;;;;;;;;;;;;-0.01;100.00;94832.44;1033599;28;20419;-77
2022/04/02 10:15:56;;;;;;;;;;;;;;;-0.02;100.00;94824.94;1034000;28;19971;-77
2022/04/02 10:16:26;;;;;;;;;;;;;;;0.31;100.00;94826.28;1039475;28;19919;-77
2022/04/02 10:16:58;;;;;;;;;;;;;;;0.51;100.00;94826.75;1036236;28;20447;-78
2022/04/02 10:17:28;;;;;;;;;;;;;;;0.73;100.00;94828.81;1035093;28;20525;-77
2022/04/02 10:18:01;;;;;;;;;;;;;;;0.82;100.00;94824.88;1027364;28;19911;-76
2022/04/02 10:18:33;;;;;;;;;;;;;;;1.00;100.00;94831.72;1027466;28;19910;-76
2022/04/02 10:19:06;;;;;;;;;;;;;;;0.92;100.00;94835.44;1030906;28;20388;-76
2022/04/02 10:19:38;;;;;;;;;;;;;;;0.73;100.00;94836.53;1032126;28;19933;-77
2022/04/02 10:20:09;;;;;;;;;;;;;;;0.73;100.00;94832.16;1037011;28;19909;-77
2022/04/02 10:20:39;;;;;;;;;;;;;;;0.83;100.00;94834.97;1038942;28;20635;-76
2022/04/02 10:21:10;;;;;;;;;;;;;;;1.00;100.00;94831.72;1043656;28;19975;-76
2022/04/02 10:21:40;;;;;;;;;;;;;;;1.00;100.00;94827.34;1043558;28;19911;-77
2022/04/02 10:22:11;;;;;;;;;;;;;;;1.20;100.00;94831.38;1042717;28;19905;-77
2022/04/02 10:22:42;;;;;;;;;;;;;;;1.30;100.00;94832.38;1038847;28;19917;-77
2022/04/02 10:23:19;;;;;;;;;;;;;;;0.88;100.00;94826.59;1035243;28;19952;-77
2022/04/02 10:23:51;;;;;;;;;;;;;;;0.95;100.00;94829.84;1036266;28;19913;-76
2022/04/02 10:24:22;;;;;;;;;;;;;;;1.03;100.00;94832.06;1040629;28;20333;-77
2022/04/02 10:24:53;;;;;;;;;;;;;;;1.23;100.00;94834.31;1043250;28;20648;-77
2022/04/02 10:25:23;;;;;;;;;;;;;;;1.44;100.00;94832.94;1038896;28;19905;-77
2022/04/02 10:26:08;;;;;;;;;;;;;;;1.55;100.00;94833.94;1039391;28;20449;-76
2022/04/02 10:26:42;;;;;;;;;;;;;;;1.17;100.00;94825.69;1040638;28;20395;-76
2022/04/02 10:27:13;;;;;;;;;;;;;;;1.01;100.00;94828.94;1036189;28;19978;-76
2022/04/02 10:27:44;;;;;;;;;;;;;;;0.74;100.00;94825.19;1039225;28;19921;-76
2022/04/02 10:28:14;;;;;;;;;;;;;;;0.39;100.00;94824.16;1031971;28;19992;-76
2022/04/02 10:28:53;;;;;;;;;;;;;;;0.46;100.00;94824.03;1031722;28;19917;-76
2022/04/02 10:29:29;;;;;;;;;;;;;;;0.64;100.00;94833.53;1031129;28;19906;-76
2022/04/02 10:29:59;;;;;;;;;;;;;;;0.81;100.00;94829.28;1030271;28;19964;-77
2022/04/02 10:30:30;;;;;;;;;;;;;;;0.90;100.00;94827.13;1036586;28;19905;-76
2022/04/02 10:31:00;;;;;;;;;;;;;;;1.17;100.00;94828.25;1032189;28;19953;-76
2022/04/02 10:31:51;;;;;;;;;;;;;;;1.28;100.00;94833.66;1039035;28;21283;-77
2022/04/02 10:32:40;;;;;;;;;;;;;;;1.64;100.00;94837.72;1027710;28;20380;-77
2022/04/02 10:33:27;;;;;;;;;;;;;;;1.30;100.00;94826.44;1028685;28;19910;-77
2022/04/02 10:33:59;;;;;;;;;;;;;;;1.23;100.00;94836.09;1032148;28;19916;-77
2022/04/02 10:34:38;;;;;;;;;;;;;;;1.33;100.00;94837.09;1035197;28;20311;-77
2022/04/02 10:35:11;;;;;;;;;;;;;;;1.35;100.00;94831.72;1032650;28;20001;-77
2022/04/02 10:35:42;;;;;;;;;;;;;;;1.48;100.00;94834.06;1037390;28;19913;-77
2022/04/02 10:36:12;;;;;;;;;;;;;;;1.63;100.00;94826.59;1043402;28;20019;-76
2022/04/02 10:36:49;;;;;;;;;;;;;;;1.68;100.00;94828.50;1036862;28;19905;-77
2022/04/02 10:37:20;;;;;;;;;;;;;;;1.87;100.00;94829.91;1039008;28;20694;-78
2022/04/02 10:38:29;;;;;;;;;;;;;;;2.03;100.00;94828.38;1031730;28;19917;-77
2022/04/02 10:38:59;;;;;;;;;;;;;;;2.10;100.00;94830.84;1023567;28;19969;-78
2022/04/02 10:39:29;;;;;;;;;;;;;;;1.89;100.00;94827.09;1020363;28;19917;-78
2022/04/02 10:40:03;;;;;;;;;;;;;;;1.91;100.00;94824.25;1016732;29;20031;-77
2022/04/02 10:40:41;;;;;;;;;;;;;;;2.19;100.00;94826.09;1012424;29;20357;-77
2022/04/02 10:41:16;;;;;;;;;;;;;;;1.67;100.00;94829.50;1019797;28;19911;-77
2022/04/02 10:41:47;;;;;;;;;;;;;;;1.59;100.00;94825.50;1018315;29;19911;-76
2022/04/02 10:42:18;;;;;;;;;;;;;;;1.44;100.00;94825.16;1022697;29;19914;-77
2022/04/02 10:42:52;;;;;;;;;;;;;;;1.59;100.00;94829.88;1026069;28;19921;-77
2022/04/02 10:43:25;;;;;;;;;;;;;;;1.28;100.00;94834.44;1020221;28;19903;-77
2022/04/02 10:44:03;;;;;;;;;;;;;;;1.36;100.00;94828.91;1029934;28;19917;-77
2022/04/02 10:44:41;;;;;;;;;;;;;;;1.36;100.00;94831.47;1031046;28;19917;-77
2022/04/02 10:45:12;;;;;;;;;;;;;;;1.40;100.00;94831.81;1039327;28;20349;-76
2022/04/02 10:45:42;;;;;;;;;;;;;;;1.41;100.00;94828.25;1031876;28;19917;-76
2022/04/02 10:46:13;;;;;;;;;;;;;;;1.52;100.00;94835.19;1028169;28;19914;-77
2022/04/02 10:46:44;;;;;;;;;;;;;;;1.57;100.00;94832.69;1029124;28;19918;-77
2022/04/02 10:47:14;;;;;;;;;;;;;;;1.48;100.00;94833.28;1034787;28;20131;-76
2022/04/02 10:47:47;;;;;;;;;;;;;;;1.11;100.00;94831.75;1038676;28;19920;-76
2022/04/02 10:48:27;;;;;;;;;;;;;;;1.25;100.00;94836.69;1042861;28;19940;-77
2022/04/02 10:49:01;;;;;;;;;;;;;;;1.27;100.00;94842.38;1036569;28;19921;-77
2022/04/02 10:49:33;;;;;;;;;;;;;;;1.42;100.00;94837.56;1038836;28;19921;-76
2022/04/02 10:50:04;;;;;;;;;;;;;;;1.27;100.00;94837.22;1035123;28;19952;-76
2022/04/02 10:50:35;;;;;;;;;;;;;;;1.41;100.00;94838.56;1035701;28;19960;-77
2022/04/02 10:51:08;;;;;;;;;;;;;;;1.31;100.00;94833.97;1027318;28;20017;-76
2022/04/02 10:51:39;;;;;;;;;;;;;;;1.36;100.00;94844.41;1029325;28;19906;-76
2022/04/02 10:52:10;;;;;;;;;;;;;;;1.40;100.00;94840.34;1031228;28;19906;-76